sensor_id;sensor_type;location;lat;lon;timestamp;pressure;altitude;pressure_sealevel;temperature;humidity
57885;BME280;43703;51.060;-0.086;2023-02-16T00:00:14;100838.13;;;7.33;78.74
57885;BME280;43703;51.060;-0.086;2023-02-16T00:02:32;100843.20;;;7.13;80.89
57885;BME280;43703;51.060;-0.086;2023-02-16T00:04:57;100839.36;;;6.09;84.18
57885;BME280;43703;51.060;-0.086;2023-02-16T00:07:23;100839.37;;;6.56;82.65
57885;BME280;43703;51.060;-0.086;2023-02-16T00:09:49;100842.18;;;6.73;79.96
57885;BME280;43703;51.060;-0.086;2023-02-16T00:12:18;100844.26;;;6.87;80.43
57885;BME280;43703;51.060;-0.086;2023-02-16T00:14:40;100840.44;;;6.78;78.77
57885;BME280;43703;51.060;-0.086;2023-02-16T00:17:05;100844.97;;;6.52;80.98
57885;BME280;43703;51.060;-0.086;2023-02-16T00:19:33;100845.19;;;7.21;78.59
57885;BME280;43703;51.060;-0.086;2023-02-16T00:21:57;100843.87;;;7.01;79.71
57885;BME280;43703;51.060;-0.086;2023-02-16T00:24:23;100836.81;;;7.20;78.49
57885;BME280;43703;51.060;-0.086;2023-02-16T00:26:47;100836.82;;;7.32;78.25
57885;BME280;43703;51.060;-0.086;2023-02-16T00:29:18;100834.73;;;6.89;78.63
57885;BME280;43703;51.060;-0.086;2023-02-16T00:31:37;100837.60;;;6.91;79.63
57885;BME280;43703;51.060;-0.086;2023-02-16T00:36:29;100823.84;;;7.79;76.97
57885;BME280;43703;51.060;-0.086;2023-02-16T00:38:54;100821.86;;;7.28;78.27
57885;BME280;43703;51.060;-0.086;2023-02-16T00:41:21;100822.54;;;7.39;77.52
57885;BME280;43703;51.060;-0.086;2023-02-16T00:43:44;100817.23;;;8.11;74.92
57885;BME280;43703;51.060;-0.086;2023-02-16T00:46:10;100817.42;;;7.64;76.28
57885;BME280;43703;51.060;-0.086;2023-02-16T00:48:34;100815.95;;;6.97;77.24
57885;BME280;43703;51.060;-0.086;2023-02-16T00:50:59;100815.87;;;7.62;76.18
57885;BME280;43703;51.060;-0.086;2023-02-16T00:53:24;100809.02;;;7.77;75.21
57885;BME280;43703;51.060;-0.086;2023-02-16T00:55:51;100811.57;;;7.40;75.93
57885;BME280;43703;51.060;-0.086;2023-02-16T00:58:22;100809.36;;;6.86;76.66
57885;BME280;43703;51.060;-0.086;2023-02-16T01:00:43;100806.27;;;7.28;78.25
57885;BME280;43703;51.060;-0.086;2023-02-16T01:03:10;100808.04;;;6.68;77.67
57885;BME280;43703;51.060;-0.086;2023-02-16T01:05:31;100811.57;;;6.57;79.15
57885;BME280;43703;51.060;-0.086;2023-02-16T01:07:57;100805.91;;;6.99;77.51
57885;BME280;43703;51.060;-0.086;2023-02-16T01:10:23;100803.75;;;6.69;78.24
57885;BME280;43703;51.060;-0.086;2023-02-16T01:12:48;100799.92;;;6.40;80.31
57885;BME280;43703;51.060;-0.086;2023-02-16T01:15:15;100798.91;;;6.77;78.49
57885;BME280;43703;51.060;-0.086;2023-02-16T01:17:39;100797.01;;;6.22;80.40
57885;BME280;43703;51.060;-0.086;2023-02-16T01:20:13;100797.73;;;6.43;80.83
57885;BME280;43703;51.060;-0.086;2023-02-16T01:22:30;100800.34;;;6.78;79.47
57885;BME280;43703;51.060;-0.086;2023-02-16T01:24:56;100796.87;;;7.27;77.66
57885;BME280;43703;51.060;-0.086;2023-02-16T01:27:22;100799.11;;;6.10;79.70
57885;BME280;43703;51.060;-0.086;2023-02-16T01:29:47;100798.10;;;5.84;81.41
57885;BME280;43703;51.060;-0.086;2023-02-16T01:32:13;100798.04;;;5.79;79.75
57885;BME280;43703;51.060;-0.086;2023-02-16T01:34:38;100795.96;;;6.70;79.09
57885;BME280;43703;51.060;-0.086;2023-02-16T01:37:04;100790.98;;;6.52;78.06
57885;BME280;43703;51.060;-0.086;2023-02-16T01:39:29;100790.90;;;6.91;76.59
57885;BME280;43703;51.060;-0.086;2023-02-16T01:42:02;100791.48;;;7.33;75.61
57885;BME280;43703;51.060;-0.086;2023-02-16T01:44:23;100792.02;;;6.25;77.15
57885;BME280;43703;51.060;-0.086;2023-02-16T01:46:50;100785.21;;;6.58;75.53
57885;BME280;43703;51.060;-0.086;2023-02-16T01:49:12;100792.70;;;7.03;75.33
57885;BME280;43703;51.060;-0.086;2023-02-16T01:51:45;100791.66;;;6.30;77.88
57885;BME280;43703;51.060;-0.086;2023-02-16T01:54:09;100791.01;;;6.01;79.58
57885;BME280;43703;51.060;-0.086;2023-02-16T01:56:31;100791.19;;;7.24;76.10
57885;BME280;43703;51.060;-0.086;2023-02-16T01:58:57;100793.01;;;6.33;77.83
57885;BME280;43703;51.060;-0.086;2023-02-16T02:03:44;100788.24;;;6.45;78.70
57885;BME280;43703;51.060;-0.086;2023-02-16T02:06:11;100787.52;;;6.67;78.63
57885;BME280;43703;51.060;-0.086;2023-02-16T02:08:39;100789.61;;;7.04;75.70
57885;BME280;43703;51.060;-0.086;2023-02-16T02:11:06;100786.84;;;6.95;76.46
57885;BME280;43703;51.060;-0.086;2023-02-16T02:13:30;100788.63;;;5.74;79.70
57885;BME280;43703;51.060;-0.086;2023-02-16T02:15:52;100786.12;;;6.33;78.58
57885;BME280;43703;51.060;-0.086;2023-02-16T02:18:17;100784.69;;;5.90;80.21
57885;BME280;43703;51.060;-0.086;2023-02-16T02:20:59;100782.70;;;6.94;77.23
57885;BME280;43703;51.060;-0.086;2023-02-16T02:23:17;100781.80;;;7.49;75.22
57885;BME280;43703;51.060;-0.086;2023-02-16T02:28:04;100783.78;;;6.73;76.87
57885;BME280;43703;51.060;-0.086;2023-02-16T02:30:37;100787.30;;;6.13;79.20
57885;BME280;43703;51.060;-0.086;2023-02-16T02:33:03;100793.16;;;6.44;76.76
57885;BME280;43703;51.060;-0.086;2023-02-16T02:35:28;100786.78;;;6.78;76.25
57885;BME280;43703;51.060;-0.086;2023-02-16T02:37:47;100785.89;;;6.55;75.19
57885;BME280;43703;51.060;-0.086;2023-02-16T02:40:13;100784.39;;;6.90;75.07
57885;BME280;43703;51.060;-0.086;2023-02-16T02:42:36;100784.84;;;7.39;74.48
57885;BME280;43703;51.060;-0.086;2023-02-16T02:45:03;100788.29;;;6.14;77.83
57885;BME280;43703;51.060;-0.086;2023-02-16T02:47:22;100789.48;;;5.77;78.68
57885;BME280;43703;51.060;-0.086;2023-02-16T02:49:50;100797.28;;;6.62;76.82
57885;BME280;43703;51.060;-0.086;2023-02-16T02:52:13;100796.01;;;5.95;78.33
57885;BME280;43703;51.060;-0.086;2023-02-16T02:54:40;100794.67;;;6.37;78.68
57885;BME280;43703;51.060;-0.086;2023-02-16T02:57:05;100793.47;;;6.22;77.71
57885;BME280;43703;51.060;-0.086;2023-02-16T02:59:29;100789.10;;;7.03;74.61
57885;BME280;43703;51.060;-0.086;2023-02-16T03:01:57;100779.23;;;6.77;75.73
57885;BME280;43703;51.060;-0.086;2023-02-16T03:04:22;100773.14;;;6.51;75.00
57885;BME280;43703;51.060;-0.086;2023-02-16T03:06:48;100772.43;;;6.32;77.34
57885;BME280;43703;51.060;-0.086;2023-02-16T03:09:13;100767.06;;;6.17;75.58
57885;BME280;43703;51.060;-0.086;2023-02-16T03:11:37;100766.14;;;6.39;74.75
57885;BME280;43703;51.060;-0.086;2023-02-16T03:14:04;100759.25;;;7.27;73.46
57885;BME280;43703;51.060;-0.086;2023-02-16T03:16:32;100753.25;;;6.69;74.55
57885;BME280;43703;51.060;-0.086;2023-02-16T03:18:52;100749.06;;;5.97;77.10
57885;BME280;43703;51.060;-0.086;2023-02-16T03:21:17;100746.03;;;5.92;75.95
57885;BME280;43703;51.060;-0.086;2023-02-16T03:23:44;100741.37;;;6.51;74.91
57885;BME280;43703;51.060;-0.086;2023-02-16T03:26:09;100738.84;;;6.44;73.65
57885;BME280;43703;51.060;-0.086;2023-02-16T03:28:36;100737.85;;;6.34;74.67
57885;BME280;43703;51.060;-0.086;2023-02-16T03:30:59;100736.99;;;7.15;73.29
57885;BME280;43703;51.060;-0.086;2023-02-16T03:33:24;100737.02;;;6.07;74.79
57885;BME280;43703;51.060;-0.086;2023-02-16T03:35:50;100732.81;;;5.63;77.28
57885;BME280;43703;51.060;-0.086;2023-02-16T03:38:15;100725.67;;;7.48;72.90
57885;BME280;43703;51.060;-0.086;2023-02-16T03:40:42;100714.62;;;8.16;69.82
57885;BME280;43703;51.060;-0.086;2023-02-16T03:43:07;100710.74;;;7.28;69.66
57885;BME280;43703;51.060;-0.086;2023-02-16T03:45:32;100705.24;;;7.51;69.56
57885;BME280;43703;51.060;-0.086;2023-02-16T03:47:56;100699.92;;;8.34;66.96
57885;BME280;43703;51.060;-0.086;2023-02-16T03:50:22;100696.33;;;8.03;67.57
57885;BME280;43703;51.060;-0.086;2023-02-16T03:52:47;100695.10;;;7.29;70.45
57885;BME280;43703;51.060;-0.086;2023-02-16T03:55:13;100690.84;;;7.57;69.88
57885;BME280;43703;51.060;-0.086;2023-02-16T03:57:39;100688.99;;;6.77;70.55
57885;BME280;43703;51.060;-0.086;2023-02-16T04:00:05;100690.63;;;7.22;70.35
57885;BME280;43703;51.060;-0.086;2023-02-16T04:02:29;100687.17;;;7.17;70.22
57885;BME280;43703;51.060;-0.086;2023-02-16T04:04:55;100692.17;;;7.26;69.46
57885;BME280;43703;51.060;-0.086;2023-02-16T04:07:20;100694.37;;;7.14;69.30
57885;BME280;43703;51.060;-0.086;2023-02-16T04:09:46;100690.84;;;5.87;73.68
57885;BME280;43703;51.060;-0.086;2023-02-16T04:12:12;100684.66;;;7.08;71.17
57885;BME280;43703;51.060;-0.086;2023-02-16T04:14:37;100688.29;;;6.91;71.33
57885;BME280;43703;51.060;-0.086;2023-02-16T04:17:02;100684.44;;;7.42;69.72
57885;BME280;43703;51.060;-0.086;2023-02-16T04:19:28;100685.10;;;7.54;69.02
57885;BME280;43703;51.060;-0.086;2023-02-16T04:21:53;100684.54;;;7.63;68.22
57885;BME280;43703;51.060;-0.086;2023-02-16T04:24:19;100684.20;;;7.49;68.32
57885;BME280;43703;51.060;-0.086;2023-02-16T04:26:44;100682.99;;;7.77;69.41
57885;BME280;43703;51.060;-0.086;2023-02-16T04:29:10;100687.63;;;7.53;67.87
57885;BME280;43703;51.060;-0.086;2023-02-16T04:31:35;100684.82;;;7.34;69.58
57885;BME280;43703;51.060;-0.086;2023-02-16T04:34:01;100682.84;;;6.69;70.63
57885;BME280;43703;51.060;-0.086;2023-02-16T04:36:26;100680.30;;;7.20;69.22
57885;BME280;43703;51.060;-0.086;2023-02-16T04:38:51;100683.99;;;6.78;70.23
57885;BME280;43703;51.060;-0.086;2023-02-16T04:41:16;100683.35;;;7.42;70.29
57885;BME280;43703;51.060;-0.086;2023-02-16T04:43:41;100687.49;;;6.44;72.97
57885;BME280;43703;51.060;-0.086;2023-02-16T04:46:07;100691.02;;;6.87;70.82
57885;BME280;43703;51.060;-0.086;2023-02-16T04:48:32;100691.18;;;7.70;69.52
57885;BME280;43703;51.060;-0.086;2023-02-16T04:50:57;100690.12;;;7.10;69.44
57885;BME280;43703;51.060;-0.086;2023-02-16T04:53:22;100692.38;;;8.01;67.83
57885;BME280;43703;51.060;-0.086;2023-02-16T04:55:49;100694.20;;;6.85;69.05
57885;BME280;43703;51.060;-0.086;2023-02-16T04:58:14;100692.33;;;7.56;68.46
57885;BME280;43703;51.060;-0.086;2023-02-16T05:00:38;100681.14;;;7.89;67.45
57885;BME280;43703;51.060;-0.086;2023-02-16T05:03:04;100672.23;;;8.31;65.61
57885;BME280;43703;51.060;-0.086;2023-02-16T05:05:29;100680.99;;;6.63;69.43
57885;BME280;43703;51.060;-0.086;2023-02-16T05:07:54;100695.37;;;6.67;69.42
57885;BME280;43703;51.060;-0.086;2023-02-16T05:10:20;100698.81;;;6.82;69.51
57885;BME280;43703;51.060;-0.086;2023-02-16T05:12:44;100696.40;;;6.65;70.29
57885;BME280;43703;51.060;-0.086;2023-02-16T05:15:09;100697.45;;;6.91;69.63
57885;BME280;43703;51.060;-0.086;2023-02-16T05:17:34;100690.31;;;7.28;69.07
57885;BME280;43703;51.060;-0.086;2023-02-16T05:20:00;100695.70;;;7.03;69.50
57885;BME280;43703;51.060;-0.086;2023-02-16T05:22:26;100695.09;;;6.78;70.11
57885;BME280;43703;51.060;-0.086;2023-02-16T05:24:51;100699.67;;;6.76;69.53
57885;BME280;43703;51.060;-0.086;2023-02-16T05:27:18;100700.99;;;6.36;71.37
57885;BME280;43703;51.060;-0.086;2023-02-16T05:29:41;100706.68;;;5.06;75.48
57885;BME280;43703;51.060;-0.086;2023-02-16T05:32:06;100701.13;;;6.16;74.15
57885;BME280;43703;51.060;-0.086;2023-02-16T05:34:31;100693.28;;;5.92;74.45
57885;BME280;43703;51.060;-0.086;2023-02-16T05:36:57;100689.15;;;5.52;74.62
57885;BME280;43703;51.060;-0.086;2023-02-16T05:39:22;100688.90;;;6.19;73.58
57885;BME280;43703;51.060;-0.086;2023-02-16T05:41:47;100695.03;;;5.61;75.41
57885;BME280;43703;51.060;-0.086;2023-02-16T05:44:12;100694.63;;;5.49;77.83
57885;BME280;43703;51.060;-0.086;2023-02-16T05:46:38;100689.45;;;5.01;79.93
57885;BME280;43703;51.060;-0.086;2023-02-16T05:49:02;100686.45;;;4.61;81.14
57885;BME280;43703;51.060;-0.086;2023-02-16T05:51:27;100679.58;;;4.72;81.82
57885;BME280;43703;51.060;-0.086;2023-02-16T05:53:52;100677.86;;;5.39;82.50
57885;BME280;43703;51.060;-0.086;2023-02-16T05:56:17;100673.32;;;4.84;83.70
57885;BME280;43703;51.060;-0.086;2023-02-16T05:58:42;100667.33;;;5.06;83.25
57885;BME280;43703;51.060;-0.086;2023-02-16T06:01:07;100663.21;;;5.30;83.20
57885;BME280;43703;51.060;-0.086;2023-02-16T06:03:33;100664.52;;;4.65;85.49
57885;BME280;43703;51.060;-0.086;2023-02-16T06:06:00;100664.28;;;4.41;87.25
57885;BME280;43703;51.060;-0.086;2023-02-16T06:08:24;100657.62;;;4.74;86.59
57885;BME280;43703;51.060;-0.086;2023-02-16T06:10:50;100658.62;;;5.02;85.87
57885;BME280;43703;51.060;-0.086;2023-02-16T06:13:14;100658.08;;;4.92;83.99
57885;BME280;43703;51.060;-0.086;2023-02-16T06:15:41;100658.80;;;5.30;83.99
57885;BME280;43703;51.060;-0.086;2023-02-16T06:18:05;100654.11;;;5.27;84.46
57885;BME280;43703;51.060;-0.086;2023-02-16T06:20:32;100654.30;;;5.19;84.13
57885;BME280;43703;51.060;-0.086;2023-02-16T06:22:56;100657.74;;;5.46;83.49
57885;BME280;43703;51.060;-0.086;2023-02-16T06:25:22;100656.80;;;4.73;86.26
57885;BME280;43703;51.060;-0.086;2023-02-16T06:27:47;100652.69;;;5.21;86.06
57885;BME280;43703;51.060;-0.086;2023-02-16T06:30:13;100653.44;;;5.36;86.48
57885;BME280;43703;51.060;-0.086;2023-02-16T06:32:38;100645.79;;;5.32;84.80
57885;BME280;43703;51.060;-0.086;2023-02-16T06:35:04;100645.45;;;4.92;86.31
57885;BME280;43703;51.060;-0.086;2023-02-16T06:37:29;100647.11;;;5.47;84.49
57885;BME280;43703;51.060;-0.086;2023-02-16T06:39:54;100644.62;;;5.75;83.00
57885;BME280;43703;51.060;-0.086;2023-02-16T06:42:20;100646.90;;;5.86;82.19
57885;BME280;43703;51.060;-0.086;2023-02-16T06:44:45;100645.40;;;5.80;83.70
57885;BME280;43703;51.060;-0.086;2023-02-16T06:47:10;100645.82;;;5.13;84.76
57885;BME280;43703;51.060;-0.086;2023-02-16T06:49:36;100648.63;;;6.17;82.03
57885;BME280;43703;51.060;-0.086;2023-02-16T06:52:01;100647.64;;;6.14;81.19
57885;BME280;43703;51.060;-0.086;2023-02-16T06:54:27;100646.90;;;5.62;83.01
57885;BME280;43703;51.060;-0.086;2023-02-16T06:56:52;100644.12;;;5.12;86.12
57885;BME280;43703;51.060;-0.086;2023-02-16T06:59:17;100649.17;;;5.18;85.96
57885;BME280;43703;51.060;-0.086;2023-02-16T07:01:43;100656.91;;;6.01;82.41
57885;BME280;43703;51.060;-0.086;2023-02-16T07:04:09;100660.93;;;6.48;80.90
57885;BME280;43703;51.060;-0.086;2023-02-16T07:06:35;100665.86;;;5.58;83.51
57885;BME280;43703;51.060;-0.086;2023-02-16T07:09:00;100668.99;;;5.55;83.96
57885;BME280;43703;51.060;-0.086;2023-02-16T07:11:25;100674.55;;;6.06;82.54
57885;BME280;43703;51.060;-0.086;2023-02-16T07:13:51;100673.22;;;5.25;83.22
57885;BME280;43703;51.060;-0.086;2023-02-16T07:16:16;100680.89;;;6.24;80.74
57885;BME280;43703;51.060;-0.086;2023-02-16T07:18:42;100686.24;;;5.72;82.55
57885;BME280;43703;51.060;-0.086;2023-02-16T07:21:07;100677.93;;;5.69;81.48
57885;BME280;43703;51.060;-0.086;2023-02-16T07:23:32;100668.78;;;5.65;81.06
57885;BME280;43703;51.060;-0.086;2023-02-16T07:25:57;100669.81;;;6.66;78.06
57885;BME280;43703;51.060;-0.086;2023-02-16T07:28:22;100668.98;;;5.42;82.27
57885;BME280;43703;51.060;-0.086;2023-02-16T07:30:47;100674.26;;;6.04;79.08
57885;BME280;43703;51.060;-0.086;2023-02-16T07:33:13;100671.60;;;6.00;78.10
57885;BME280;43703;51.060;-0.086;2023-02-16T07:35:37;100671.14;;;5.62;79.08
57885;BME280;43703;51.060;-0.086;2023-02-16T07:38:03;100670.49;;;6.59;77.10
57885;BME280;43703;51.060;-0.086;2023-02-16T07:40:28;100665.36;;;6.58;74.87
57885;BME280;43703;51.060;-0.086;2023-02-16T07:42:52;100671.90;;;5.29;77.82
57885;BME280;43703;51.060;-0.086;2023-02-16T07:45:18;100674.64;;;5.39;78.12
57885;BME280;43703;51.060;-0.086;2023-02-16T07:47:43;100677.68;;;5.33;78.56
57885;BME280;43703;51.060;-0.086;2023-02-16T07:50:08;100685.06;;;5.94;77.82
57885;BME280;43703;51.060;-0.086;2023-02-16T07:52:33;100690.71;;;5.20;79.93
57885;BME280;43703;51.060;-0.086;2023-02-16T07:54:58;100685.78;;;4.82;83.43
57885;BME280;43703;51.060;-0.086;2023-02-16T07:57:24;100685.83;;;4.77;84.95
57885;BME280;43703;51.060;-0.086;2023-02-16T07:59:49;100683.45;;;5.00;83.82
57885;BME280;43703;51.060;-0.086;2023-02-16T08:02:15;100688.26;;;5.47;82.68
57885;BME280;43703;51.060;-0.086;2023-02-16T08:04:39;100683.31;;;6.31;79.30
57885;BME280;43703;51.060;-0.086;2023-02-16T08:07:04;100674.38;;;6.53;79.39
57885;BME280;43703;51.060;-0.086;2023-02-16T08:09:29;100671.83;;;4.84;86.55
57885;BME280;43703;51.060;-0.086;2023-02-16T08:11:54;100676.90;;;5.33;86.62
57885;BME280;43703;51.060;-0.086;2023-02-16T08:14:19;100677.81;;;5.43;86.00
57885;BME280;43703;51.060;-0.086;2023-02-16T08:16:44;100686.55;;;5.42;85.95
57885;BME280;43703;51.060;-0.086;2023-02-16T08:19:09;100690.64;;;5.78;87.14
57885;BME280;43703;51.060;-0.086;2023-02-16T08:21:34;100688.28;;;5.68;85.71
57885;BME280;43703;51.060;-0.086;2023-02-16T08:24:01;100698.42;;;5.44;87.26
57885;BME280;43703;51.060;-0.086;2023-02-16T08:26:26;100691.66;;;5.98;84.98
57885;BME280;43703;51.060;-0.086;2023-02-16T08:28:49;100691.21;;;5.22;87.55
57885;BME280;43703;51.060;-0.086;2023-02-16T08:31:16;100690.85;;;5.43;88.81
57885;BME280;43703;51.060;-0.086;2023-02-16T08:33:40;100697.64;;;5.68;89.33
57885;BME280;43703;51.060;-0.086;2023-02-16T08:36:05;100692.81;;;6.04;87.83
57885;BME280;43703;51.060;-0.086;2023-02-16T08:38:29;100693.18;;;5.23;90.44
57885;BME280;43703;51.060;-0.086;2023-02-16T08:40:54;100696.99;;;5.97;89.81
57885;BME280;43703;51.060;-0.086;2023-02-16T08:43:20;100697.15;;;5.72;90.01
57885;BME280;43703;51.060;-0.086;2023-02-16T08:45:45;100693.22;;;5.19;92.06
57885;BME280;43703;51.060;-0.086;2023-02-16T08:48:09;100692.40;;;6.31;88.65
57885;BME280;43703;51.060;-0.086;2023-02-16T08:50:34;100688.41;;;5.52;91.71
57885;BME280;43703;51.060;-0.086;2023-02-16T08:52:59;100689.42;;;5.60;89.96
57885;BME280;43703;51.060;-0.086;2023-02-16T08:55:25;100687.76;;;5.53;93.10
57885;BME280;43703;51.060;-0.086;2023-02-16T08:57:50;100685.17;;;5.93;90.46
57885;BME280;43703;51.060;-0.086;2023-02-16T09:00:16;100682.89;;;5.21;92.06
57885;BME280;43703;51.060;-0.086;2023-02-16T09:02:40;100682.37;;;5.56;89.97
57885;BME280;43703;51.060;-0.086;2023-02-16T09:05:05;100680.92;;;6.20;88.29
57885;BME280;43703;51.060;-0.086;2023-02-16T09:07:30;100680.12;;;5.06;92.16
57885;BME280;43703;51.060;-0.086;2023-02-16T09:09:55;100678.40;;;5.75;89.75
57885;BME280;43703;51.060;-0.086;2023-02-16T09:12:20;100675.09;;;6.04;88.18
57885;BME280;43703;51.060;-0.086;2023-02-16T09:14:45;100680.06;;;6.11;88.08
57885;BME280;43703;51.060;-0.086;2023-02-16T09:17:10;100672.02;;;5.78;88.91
57885;BME280;43703;51.060;-0.086;2023-02-16T09:19:35;100670.21;;;6.63;87.08
57885;BME280;43703;51.060;-0.086;2023-02-16T09:22:00;100675.65;;;5.50;89.27
57885;BME280;43703;51.060;-0.086;2023-02-16T09:24:25;100667.88;;;5.12;91.73
57885;BME280;43703;51.060;-0.086;2023-02-16T09:26:50;100669.85;;;5.25;92.43
57885;BME280;43703;51.060;-0.086;2023-02-16T09:29:15;100675.09;;;5.70;91.37
57885;BME280;43703;51.060;-0.086;2023-02-16T09:31:41;100674.09;;;4.97;92.96
57885;BME280;43703;51.060;-0.086;2023-02-16T09:34:09;100676.15;;;5.29;92.27
57885;BME280;43703;51.060;-0.086;2023-02-16T09:36:31;100681.30;;;5.16;91.80
57885;BME280;43703;51.060;-0.086;2023-02-16T09:38:57;100676.67;;;5.39;94.35
57885;BME280;43703;51.060;-0.086;2023-02-16T09:41:31;100677.46;;;5.34;93.11
57885;BME280;43703;51.060;-0.086;2023-02-16T09:43:50;100678.80;;;5.57;91.96
57885;BME280;43703;51.060;-0.086;2023-02-16T09:46:12;100678.17;;;5.37;93.38
57885;BME280;43703;51.060;-0.086;2023-02-16T09:48:39;100670.97;;;4.93;93.57
57885;BME280;43703;51.060;-0.086;2023-02-16T09:51:05;100667.59;;;5.44;92.34
57885;BME280;43703;51.060;-0.086;2023-02-16T09:53:33;100668.77;;;5.27;93.61
57885;BME280;43703;51.060;-0.086;2023-02-16T09:55:56;100671.36;;;5.14;94.42
57885;BME280;43703;51.060;-0.086;2023-02-16T09:58:20;100670.81;;;5.66;93.36
57885;BME280;43703;51.060;-0.086;2023-02-16T10:00:47;100665.76;;;6.14;89.64
57885;BME280;43703;51.060;-0.086;2023-02-16T10:03:16;100665.22;;;5.84;91.89
57885;BME280;43703;51.060;-0.086;2023-02-16T10:05:40;100664.56;;;5.08;94.26
57885;BME280;43703;51.060;-0.086;2023-02-16T10:08:00;100663.28;;;5.50;93.82
57885;BME280;43703;51.060;-0.086;2023-02-16T10:10:24;100661.42;;;5.89;90.71
57885;BME280;43703;51.060;-0.086;2023-02-16T10:12:52;100661.89;;;5.44;92.00
57885;BME280;43703;51.060;-0.086;2023-02-16T10:15:14;100658.53;;;5.52;92.50
57885;BME280;43703;51.060;-0.086;2023-02-16T10:17:43;100660.70;;;5.85;91.14
57885;BME280;43703;51.060;-0.086;2023-02-16T10:20:05;100655.60;;;4.92;93.91
57885;BME280;43703;51.060;-0.086;2023-02-16T10:22:32;100666.10;;;5.48;93.36
57885;BME280;43703;51.060;-0.086;2023-02-16T10:24:58;100661.35;;;5.38;92.94
57885;BME280;43703;51.060;-0.086;2023-02-16T10:27:20;100673.05;;;5.23;93.14
57885;BME280;43703;51.060;-0.086;2023-02-16T10:29:43;100667.95;;;5.16;94.08
57885;BME280;43703;51.060;-0.086;2023-02-16T10:32:14;100670.99;;;5.52;92.97
57885;BME280;43703;51.060;-0.086;2023-02-16T10:34:44;100668.56;;;5.87;91.06
57885;BME280;43703;51.060;-0.086;2023-02-16T10:37:09;100667.48;;;5.64;93.44
57885;BME280;43703;51.060;-0.086;2023-02-16T10:39:28;100669.48;;;6.18;90.05
57885;BME280;43703;51.060;-0.086;2023-02-16T10:41:54;100667.91;;;5.95;90.61
57885;BME280;43703;51.060;-0.086;2023-02-16T10:44:21;100671.61;;;5.97;89.85
57885;BME280;43703;51.060;-0.086;2023-02-16T10:46:43;100669.17;;;5.50;91.92
57885;BME280;43703;51.060;-0.086;2023-02-16T10:49:08;100666.78;;;6.02;91.31
57885;BME280;43703;51.060;-0.086;2023-02-16T10:51:32;100667.51;;;5.65;92.50
57885;BME280;43703;51.060;-0.086;2023-02-16T10:53:58;100662.06;;;5.87;91.06
57885;BME280;43703;51.060;-0.086;2023-02-16T10:56:34;100671.07;;;6.30;90.15
57885;BME280;43703;51.060;-0.086;2023-02-16T10:58:46;100672.75;;;6.14;90.42
57885;BME280;43703;51.060;-0.086;2023-02-16T11:01:14;100672.85;;;6.19;89.93
57885;BME280;43703;51.060;-0.086;2023-02-16T11:03:42;100672.97;;;6.72;87.52
57885;BME280;43703;51.060;-0.086;2023-02-16T11:08:32;100672.92;;;5.89;91.37
57885;BME280;43703;51.060;-0.086;2023-02-16T11:10:52;100674.71;;;5.94;92.22
57885;BME280;43703;51.060;-0.086;2023-02-16T11:13:26;100675.03;;;6.14;91.83
57885;BME280;43703;51.060;-0.086;2023-02-16T11:15:42;100673.31;;;6.60;89.77
57885;BME280;43703;51.060;-0.086;2023-02-16T11:18:19;100677.63;;;5.72;92.70
57885;BME280;43703;51.060;-0.086;2023-02-16T11:20:34;100683.49;;;5.93;93.26
57885;BME280;43703;51.060;-0.086;2023-02-16T11:23:11;100681.16;;;5.74;93.31
57885;BME280;43703;51.060;-0.086;2023-02-16T11:25:24;100676.43;;;5.96;92.98
57885;BME280;43703;51.060;-0.086;2023-02-16T11:27:50;100672.43;;;6.76;88.68
57885;BME280;43703;51.060;-0.086;2023-02-16T11:30:15;100674.82;;;6.47;90.03
57885;BME280;43703;51.060;-0.086;2023-02-16T11:32:37;100666.66;;;6.88;88.47
57885;BME280;43703;51.060;-0.086;2023-02-16T11:35:07;100663.98;;;6.52;89.28
57885;BME280;43703;51.060;-0.086;2023-02-16T11:37:29;100667.36;;;6.05;90.98
57885;BME280;43703;51.060;-0.086;2023-02-16T11:39:54;100664.05;;;5.94;92.88
57885;BME280;43703;51.060;-0.086;2023-02-16T11:42:25;100657.30;;;6.33;91.50
57885;BME280;43703;51.060;-0.086;2023-02-16T11:44:47;100658.12;;;6.67;90.56
57885;BME280;43703;51.060;-0.086;2023-02-16T11:47:19;100653.01;;;6.31;92.15
57885;BME280;43703;51.060;-0.086;2023-02-16T11:49:34;100648.79;;;6.51;91.71
57885;BME280;43703;51.060;-0.086;2023-02-16T11:51:59;100645.39;;;6.42;92.24
57885;BME280;43703;51.060;-0.086;2023-02-16T11:54:23;100636.72;;;6.65;91.26
57885;BME280;43703;51.060;-0.086;2023-02-16T11:59:15;100631.03;;;6.02;95.14
57885;BME280;43703;51.060;-0.086;2023-02-16T12:01:50;100628.50;;;6.26;95.22
57885;BME280;43703;51.060;-0.086;2023-02-16T12:04:10;100632.40;;;5.66;95.68
57885;BME280;43703;51.060;-0.086;2023-02-16T12:09:03;100620.75;;;6.26;94.15
57885;BME280;43703;51.060;-0.086;2023-02-16T12:11:27;100620.41;;;6.62;93.55
57885;BME280;43703;51.060;-0.086;2023-02-16T12:13:49;100620.83;;;5.58;96.24
57885;BME280;43703;51.060;-0.086;2023-02-16T12:16:19;100621.57;;;6.10;95.64
57885;BME280;43703;51.060;-0.086;2023-02-16T12:18:40;100619.42;;;6.52;93.74
57885;BME280;43703;51.060;-0.086;2023-02-16T12:21:04;100622.73;;;6.35;96.05
57885;BME280;43703;51.060;-0.086;2023-02-16T12:23:32;100627.27;;;6.52;92.37
57885;BME280;43703;51.060;-0.086;2023-02-16T12:25:54;100627.88;;;6.85;91.30
57885;BME280;43703;51.060;-0.086;2023-02-16T12:28:19;100622.59;;;6.46;94.94
57885;BME280;43703;51.060;-0.086;2023-02-16T12:30:49;100622.57;;;7.21;92.26
57885;BME280;43703;51.060;-0.086;2023-02-16T12:33:13;100618.20;;;6.14;95.95
57885;BME280;43703;51.060;-0.086;2023-02-16T12:35:38;100620.22;;;6.57;96.40
57885;BME280;43703;51.060;-0.086;2023-02-16T12:37:58;100620.52;;;6.32;95.50
57885;BME280;43703;51.060;-0.086;2023-02-16T12:40:26;100616.78;;;6.55;94.63
57885;BME280;43703;51.060;-0.086;2023-02-16T12:42:54;100601.70;;;7.05;93.45
57885;BME280;43703;51.060;-0.086;2023-02-16T12:45:13;100603.49;;;6.30;94.29
57885;BME280;43703;51.060;-0.086;2023-02-16T12:47:36;100604.24;;;6.37;96.87
57885;BME280;43703;51.060;-0.086;2023-02-16T12:50:01;100590.18;;;6.51;94.64
57885;BME280;43703;51.060;-0.086;2023-02-16T12:52:31;100584.67;;;6.21;98.25